Okotoks, Canada
Current Conditions -  °F | °C
As of 11:00 AM on Monday 24 Nov 2014 (Local Time) from CYYC Reporting Station
Broken Clouds Broken Clouds  
Wind Chill: 30°   Ceiling: 28000
Heat Index: 36°   Visibility: 40mi
Dew Point: 23°   Wind: 7mph
Humidity: 60%   Direction: 180°S
Pressure: 30"   Gusts: NA
Location:  50.73°N, 113.97°W
Report Text: CYYC 241800Z 18006KT 40SM FEW110 BKN280 02/M05 A3000 RMK AC1CI7 AC TR SLP208
Loading
Personal Weather Stations






























Interactive Weather Map New forecast layout! Learn more

10-Day Weather Forecast

Advertisements
Track Severe Weather on mobile